Terminal Aerodrome Forecast
Issued by NWS San Angelo, TX

Home | Current Version | Previous Version | Text Only | Print | Product List | Glossary On
Versions: 1 2 3 4 5 6 7 8 9 10 11 12 13 14 15 16 17
000
FTUS44 KSJT 170040 AAA
TAFABI
TAF AMD
KABI 170040Z 1701/1724 18013KT P6SM BKN022 OVC100
      TEMPO 1701/1705 BKN009
     FM170500 18013KT P6SM OVC009
     FM170900 20012KT P6SM SKC
     FM171500 23008KT P6SM OVC007
     FM171800 24006KT P6SM SKC=

USA.gov is the U.S. government's official web portal to all federal, state and local government web resources and services.